sensor_id;sensor_type;location;lat;lon;timestamp;temperature;humidity
8093;DHT22;4089;52.420;13.334;2024-02-26T00:02:07;2.70;99.90
8093;DHT22;4089;52.420;13.334;2024-02-26T00:04:34;2.70;99.90
8093;DHT22;4089;52.420;13.334;2024-02-26T00:07:01;2.70;99.90
8093;DHT22;4089;52.420;13.334;2024-02-26T00:09:28;2.70;99.90
8093;DHT22;4089;52.420;13.334;2024-02-26T00:11:56;2.70;99.90
8093;DHT22;4089;52.420;13.334;2024-02-26T00:14:24;2.70;99.90
8093;DHT22;4089;52.420;13.334;2024-02-26T00:16:51;2.70;99.90
8093;DHT22;4089;52.420;13.334;2024-02-26T00:19:18;2.70;99.90
8093;DHT22;4089;52.420;13.334;2024-02-26T00:21:45;2.80;99.90
8093;DHT22;4089;52.420;13.334;2024-02-26T00:24:11;2.80;99.90
8093;DHT22;4089;52.420;13.334;2024-02-26T00:26:38;2.80;99.90
8093;DHT22;4089;52.420;13.334;2024-02-26T00:29:05;2.70;99.90
8093;DHT22;4089;52.420;13.334;2024-02-26T00:31:32;2.70;99.90
8093;DHT22;4089;52.420;13.334;2024-02-26T00:33:59;2.70;99.90
8093;DHT22;4089;52.420;13.334;2024-02-26T00:36:26;2.70;99.90
8093;DHT22;4089;52.420;13.334;2024-02-26T00:38:53;2.60;99.90
8093;DHT22;4089;52.420;13.334;2024-02-26T00:41:20;2.60;99.90
8093;DHT22;4089;52.420;13.334;2024-02-26T00:43:47;2.60;99.90
8093;DHT22;4089;52.420;13.334;2024-02-26T00:46:14;2.50;99.90
8093;DHT22;4089;52.420;13.334;2024-02-26T00:48:41;2.50;99.90
8093;DHT22;4089;52.420;13.334;2024-02-26T00:51:08;2.50;99.90
8093;DHT22;4089;52.420;13.334;2024-02-26T00:53:35;2.60;99.90
8093;DHT22;4089;52.420;13.334;2024-02-26T00:56:02;2.50;99.90
8093;DHT22;4089;52.420;13.334;2024-02-26T00:58:29;2.50;99.90
8093;DHT22;4089;52.420;13.334;2024-02-26T01:00:56;2.40;99.90
8093;DHT22;4089;52.420;13.334;2024-02-26T01:03:22;2.40;99.90
8093;DHT22;4089;52.420;13.334;2024-02-26T01:05:49;2.50;99.90
8093;DHT22;4089;52.420;13.334;2024-02-26T01:08:18;2.50;99.90
8093;DHT22;4089;52.420;13.334;2024-02-26T01:10:45;2.50;99.90
8093;DHT22;4089;52.420;13.334;2024-02-26T01:13:12;2.40;99.90
8093;DHT22;4089;52.420;13.334;2024-02-26T01:15:38;2.30;99.90
8093;DHT22;4089;52.420;13.334;2024-02-26T01:18:05;2.20;99.90
8093;DHT22;4089;52.420;13.334;2024-02-26T01:20:32;2.20;99.90
8093;DHT22;4089;52.420;13.334;2024-02-26T01:22:59;2.00;99.90
8093;DHT22;4089;52.420;13.334;2024-02-26T01:25:25;1.90;99.90
8093;DHT22;4089;52.420;13.334;2024-02-26T01:27:52;2.00;99.90
8093;DHT22;4089;52.420;13.334;2024-02-26T01:30:19;2.00;99.90
8093;DHT22;4089;52.420;13.334;2024-02-26T01:32:47;2.00;99.90
8093;DHT22;4089;52.420;13.334;2024-02-26T01:35:14;2.00;99.90
8093;DHT22;4089;52.420;13.334;2024-02-26T01:37:42;2.00;99.90
8093;DHT22;4089;52.420;13.334;2024-02-26T01:40:09;2.00;99.90
8093;DHT22;4089;52.420;13.334;2024-02-26T01:42:38;2.00;99.90
8093;DHT22;4089;52.420;13.334;2024-02-26T01:45:05;2.00;99.90
8093;DHT22;4089;52.420;13.334;2024-02-26T01:47:35;2.10;99.90
8093;DHT22;4089;52.420;13.334;2024-02-26T01:50:02;2.00;99.90
8093;DHT22;4089;52.420;13.334;2024-02-26T01:52:29;2.00;99.90
8093;DHT22;4089;52.420;13.334;2024-02-26T01:54:56;1.90;99.90
8093;DHT22;4089;52.420;13.334;2024-02-26T01:57:22;2.00;99.90
8093;DHT22;4089;52.420;13.334;2024-02-26T01:59:49;1.90;99.90
8093;DHT22;4089;52.420;13.334;2024-02-26T02:02:16;1.90;99.90
8093;DHT22;4089;52.420;13.334;2024-02-26T02:04:43;1.90;99.90
8093;DHT22;4089;52.420;13.334;2024-02-26T02:07:10;1.80;99.90
8093;DHT22;4089;52.420;13.334;2024-02-26T02:09:37;1.80;99.90
8093;DHT22;4089;52.420;13.334;2024-02-26T02:12:04;1.80;99.90
8093;DHT22;4089;52.420;13.334;2024-02-26T02:14:32;1.70;99.90
8093;DHT22;4089;52.420;13.334;2024-02-26T02:16:59;1.70;99.90
8093;DHT22;4089;52.420;13.334;2024-02-26T02:19:26;1.60;99.90
8093;DHT22;4089;52.420;13.334;2024-02-26T02:21:53;1.70;99.90
8093;DHT22;4089;52.420;13.334;2024-02-26T02:24:20;1.70;99.90
8093;DHT22;4089;52.420;13.334;2024-02-26T02:26:47;1.70;99.90
8093;DHT22;4089;52.420;13.334;2024-02-26T02:29:14;1.70;99.90
8093;DHT22;4089;52.420;13.334;2024-02-26T02:31:41;1.80;99.90
8093;DHT22;4089;52.420;13.334;2024-02-26T02:34:09;1.70;99.90
8093;DHT22;4089;52.420;13.334;2024-02-26T02:36:48;1.80;99.90
8093;DHT22;4089;52.420;13.334;2024-02-26T02:39:15;1.80;99.90
8093;DHT22;4089;52.420;13.334;2024-02-26T02:41:42;1.80;99.90
8093;DHT22;4089;52.420;13.334;2024-02-26T02:44:09;1.90;99.90
8093;DHT22;4089;52.420;13.334;2024-02-26T02:46:37;1.90;99.90
8093;DHT22;4089;52.420;13.334;2024-02-26T02:49:03;1.90;99.90
8093;DHT22;4089;52.420;13.334;2024-02-26T02:51:30;1.90;99.90
8093;DHT22;4089;52.420;13.334;2024-02-26T02:53:57;2.00;99.90
8093;DHT22;4089;52.420;13.334;2024-02-26T02:56:24;1.90;99.90
8093;DHT22;4089;52.420;13.334;2024-02-26T02:58:51;1.90;99.90
8093;DHT22;4089;52.420;13.334;2024-02-26T03:01:18;1.90;99.90
8093;DHT22;4089;52.420;13.334;2024-02-26T03:03:45;1.80;99.90
8093;DHT22;4089;52.420;13.334;2024-02-26T03:06:12;1.70;99.90
8093;DHT22;4089;52.420;13.334;2024-02-26T03:08:38;1.70;99.90
8093;DHT22;4089;52.420;13.334;2024-02-26T03:11:06;1.60;99.90
8093;DHT22;4089;52.420;13.334;2024-02-26T03:13:33;1.70;99.90
8093;DHT22;4089;52.420;13.334;2024-02-26T03:16:05;1.60;99.90
8093;DHT22;4089;52.420;13.334;2024-02-26T03:18:32;1.60;99.90
8093;DHT22;4089;52.420;13.334;2024-02-26T03:20:59;1.60;99.90
8093;DHT22;4089;52.420;13.334;2024-02-26T03:23:26;1.60;99.90
8093;DHT22;4089;52.420;13.334;2024-02-26T03:25:53;1.60;99.90
8093;DHT22;4089;52.420;13.334;2024-02-26T03:28:19;1.60;99.90
8093;DHT22;4089;52.420;13.334;2024-02-26T03:30:46;1.60;99.90
8093;DHT22;4089;52.420;13.334;2024-02-26T03:33:13;1.40;99.90
8093;DHT22;4089;52.420;13.334;2024-02-26T03:35:40;1.40;99.90
8093;DHT22;4089;52.420;13.334;2024-02-26T03:38:07;1.50;99.90
8093;DHT22;4089;52.420;13.334;2024-02-26T03:40:34;1.50;99.90
8093;DHT22;4089;52.420;13.334;2024-02-26T03:43:00;1.50;99.90
8093;DHT22;4089;52.420;13.334;2024-02-26T03:45:27;1.50;99.90
8093;DHT22;4089;52.420;13.334;2024-02-26T03:47:54;1.40;99.90
8093;DHT22;4089;52.420;13.334;2024-02-26T03:50:21;1.40;99.90
8093;DHT22;4089;52.420;13.334;2024-02-26T03:52:48;1.50;99.90
8093;DHT22;4089;52.420;13.334;2024-02-26T03:55:15;1.50;99.90
8093;DHT22;4089;52.420;13.334;2024-02-26T03:57:41;1.50;99.90
8093;DHT22;4089;52.420;13.334;2024-02-26T04:00:09;1.50;99.90
8093;DHT22;4089;52.420;13.334;2024-02-26T04:02:36;1.40;99.90
8093;DHT22;4089;52.420;13.334;2024-02-26T04:05:03;1.40;99.90
8093;DHT22;4089;52.420;13.334;2024-02-26T04:07:29;1.50;99.90
8093;DHT22;4089;52.420;13.334;2024-02-26T04:09:56;1.50;99.90
8093;DHT22;4089;52.420;13.334;2024-02-26T04:12:23;1.40;99.90
8093;DHT22;4089;52.420;13.334;2024-02-26T04:14:50;1.40;99.90
8093;DHT22;4089;52.420;13.334;2024-02-26T04:17:17;1.40;99.90
8093;DHT22;4089;52.420;13.334;2024-02-26T04:19:43;1.40;99.90
8093;DHT22;4089;52.420;13.334;2024-02-26T04:22:10;1.30;99.90
8093;DHT22;4089;52.420;13.334;2024-02-26T04:24:37;1.20;99.90
8093;DHT22;4089;52.420;13.334;2024-02-26T04:27:04;1.30;99.90
8093;DHT22;4089;52.420;13.334;2024-02-26T04:29:31;1.30;99.90
8093;DHT22;4089;52.420;13.334;2024-02-26T04:31:58;1.30;99.90
8093;DHT22;4089;52.420;13.334;2024-02-26T04:34:24;1.30;99.90
8093;DHT22;4089;52.420;13.334;2024-02-26T04:36:52;1.40;99.90
8093;DHT22;4089;52.420;13.334;2024-02-26T04:39:18;1.40;99.90
8093;DHT22;4089;52.420;13.334;2024-02-26T04:41:45;1.50;99.90
8093;DHT22;4089;52.420;13.334;2024-02-26T04:44:12;1.50;99.90
8093;DHT22;4089;52.420;13.334;2024-02-26T04:46:39;1.50;99.90
8093;DHT22;4089;52.420;13.334;2024-02-26T04:49:06;1.50;99.90
8093;DHT22;4089;52.420;13.334;2024-02-26T04:51:33;1.50;99.90
8093;DHT22;4089;52.420;13.334;2024-02-26T04:54:00;1.40;99.90
8093;DHT22;4089;52.420;13.334;2024-02-26T04:56:27;1.50;99.90
8093;DHT22;4089;52.420;13.334;2024-02-26T04:58:53;1.50;99.90
8093;DHT22;4089;52.420;13.334;2024-02-26T05:01:20;1.50;99.90
8093;DHT22;4089;52.420;13.334;2024-02-26T05:03:47;1.50;99.90
8093;DHT22;4089;52.420;13.334;2024-02-26T05:06:14;1.60;99.90
8093;DHT22;4089;52.420;13.334;2024-02-26T05:08:41;1.60;99.90
8093;DHT22;4089;52.420;13.334;2024-02-26T05:11:10;1.60;99.90
8093;DHT22;4089;52.420;13.334;2024-02-26T05:13:37;1.70;99.90
8093;DHT22;4089;52.420;13.334;2024-02-26T05:16:04;1.60;99.90
8093;DHT22;4089;52.420;13.334;2024-02-26T05:18:31;1.60;99.90
8093;DHT22;4089;52.420;13.334;2024-02-26T05:20:58;1.70;99.90
8093;DHT22;4089;52.420;13.334;2024-02-26T05:23:27;1.70;99.90
8093;DHT22;4089;52.420;13.334;2024-02-26T05:25:54;1.70;99.90
8093;DHT22;4089;52.420;13.334;2024-02-26T05:28:21;1.60;99.90
8093;DHT22;4089;52.420;13.334;2024-02-26T05:30:47;1.60;99.90
8093;DHT22;4089;52.420;13.334;2024-02-26T05:33:14;1.60;99.90
8093;DHT22;4089;52.420;13.334;2024-02-26T05:35:44;1.70;99.90
8093;DHT22;4089;52.420;13.334;2024-02-26T05:38:11;1.70;99.90
8093;DHT22;4089;52.420;13.334;2024-02-26T05:40:38;1.70;99.90
8093;DHT22;4089;52.420;13.334;2024-02-26T05:43:05;1.80;99.90
8093;DHT22;4089;52.420;13.334;2024-02-26T05:45:32;1.80;99.90
8093;DHT22;4089;52.420;13.334;2024-02-26T05:47:59;1.80;99.90
8093;DHT22;4089;52.420;13.334;2024-02-26T05:50:26;1.80;99.90
8093;DHT22;4089;52.420;13.334;2024-02-26T05:52:53;1.80;99.90
8093;DHT22;4089;52.420;13.334;2024-02-26T05:55:20;1.90;99.90
8093;DHT22;4089;52.420;13.334;2024-02-26T05:57:47;1.90;99.90
8093;DHT22;4089;52.420;13.334;2024-02-26T06:00:14;2.00;99.90
8093;DHT22;4089;52.420;13.334;2024-02-26T06:02:41;2.00;99.90
8093;DHT22;4089;52.420;13.334;2024-02-26T06:05:09;2.00;99.90
8093;DHT22;4089;52.420;13.334;2024-02-26T06:07:36;2.00;99.90
8093;DHT22;4089;52.420;13.334;2024-02-26T06:10:12;2.00;99.90
8093;DHT22;4089;52.420;13.334;2024-02-26T06:12:45;2.10;99.90
8093;DHT22;4089;52.420;13.334;2024-02-26T06:15:11;2.10;99.90
8093;DHT22;4089;52.420;13.334;2024-02-26T06:17:39;2.30;99.90
8093;DHT22;4089;52.420;13.334;2024-02-26T06:20:06;2.20;99.90
8093;DHT22;4089;52.420;13.334;2024-02-26T06:22:33;2.20;99.90
8093;DHT22;4089;52.420;13.334;2024-02-26T06:25:00;2.20;99.90
8093;DHT22;4089;52.420;13.334;2024-02-26T06:27:27;2.30;99.90
8093;DHT22;4089;52.420;13.334;2024-02-26T06:29:54;2.40;99.90
8093;DHT22;4089;52.420;13.334;2024-02-26T06:32:23;2.50;99.90
8093;DHT22;4089;52.420;13.334;2024-02-26T06:34:50;2.50;99.90
8093;DHT22;4089;52.420;13.334;2024-02-26T06:37:17;2.50;99.90
8093;DHT22;4089;52.420;13.334;2024-02-26T06:39:44;2.60;99.90
8093;DHT22;4089;52.420;13.334;2024-02-26T06:42:11;2.70;99.90
8093;DHT22;4089;52.420;13.334;2024-02-26T06:44:38;2.70;99.90
8093;DHT22;4089;52.420;13.334;2024-02-26T06:47:05;2.90;99.90
8093;DHT22;4089;52.420;13.334;2024-02-26T06:49:31;3.00;99.90
8093;DHT22;4089;52.420;13.334;2024-02-26T06:52:00;3.00;99.90
8093;DHT22;4089;52.420;13.334;2024-02-26T06:54:27;3.10;99.90
8093;DHT22;4089;52.420;13.334;2024-02-26T06:56:55;3.10;99.90
8093;DHT22;4089;52.420;13.334;2024-02-26T06:59:22;3.20;99.90
8093;DHT22;4089;52.420;13.334;2024-02-26T07:01:50;3.20;99.90
8093;DHT22;4089;52.420;13.334;2024-02-26T07:04:18;3.20;99.90
8093;DHT22;4089;52.420;13.334;2024-02-26T07:06:45;3.30;99.90
8093;DHT22;4089;52.420;13.334;2024-02-26T07:09:13;3.40;99.90
8093;DHT22;4089;52.420;13.334;2024-02-26T07:11:40;3.40;99.90
8093;DHT22;4089;52.420;13.334;2024-02-26T07:14:09;3.40;99.90
8093;DHT22;4089;52.420;13.334;2024-02-26T07:16:37;3.50;99.90
8093;DHT22;4089;52.420;13.334;2024-02-26T07:19:04;3.50;99.90
8093;DHT22;4089;52.420;13.334;2024-02-26T07:21:31;3.50;99.90
8093;DHT22;4089;52.420;13.334;2024-02-26T07:23:58;3.50;99.90
8093;DHT22;4089;52.420;13.334;2024-02-26T07:26:25;3.60;99.90
8093;DHT22;4089;52.420;13.334;2024-02-26T07:28:52;3.60;99.90
8093;DHT22;4089;52.420;13.334;2024-02-26T08:09:16;3.80;99.90
8093;DHT22;4089;52.420;13.334;2024-02-26T08:11:46;4.00;99.90
8093;DHT22;4089;52.420;13.334;2024-02-26T08:14:13;4.20;99.90
8093;DHT22;4089;52.420;13.334;2024-02-26T08:16:40;4.40;99.90
8093;DHT22;4089;52.420;13.334;2024-02-26T08:19:07;4.60;99.90
8093;DHT22;4089;52.420;13.334;2024-02-26T08:21:37;4.70;99.90
8093;DHT22;4089;52.420;13.334;2024-02-26T08:24:04;4.90;99.90
8093;DHT22;4089;52.420;13.334;2024-02-26T08:26:31;5.10;99.90
8093;DHT22;4089;52.420;13.334;2024-02-26T08:28:58;5.30;99.90
8093;DHT22;4089;52.420;13.334;2024-02-26T08:31:25;5.50;99.90
8093;DHT22;4089;52.420;13.334;2024-02-26T08:33:51;5.70;99.90
8093;DHT22;4089;52.420;13.334;2024-02-26T08:36:18;5.80;99.90
8093;DHT22;4089;52.420;13.334;2024-02-26T08:38:46;5.80;99.90
8093;DHT22;4089;52.420;13.334;2024-02-26T08:41:13;5.80;99.90
8093;DHT22;4089;52.420;13.334;2024-02-26T08:43:39;5.80;99.90
8093;DHT22;4089;52.420;13.334;2024-02-26T08:46:09;5.90;99.90
8093;DHT22;4089;52.420;13.334;2024-02-26T08:48:37;6.10;99.90
8093;DHT22;4089;52.420;13.334;2024-02-26T08:51:09;6.40;99.90
8093;DHT22;4089;52.420;13.334;2024-02-26T08:53:36;6.50;99.90
8093;DHT22;4089;52.420;13.334;2024-02-26T08:56:09;6.70;99.90
8093;DHT22;4089;52.420;13.334;2024-02-26T08:58:38;6.80;99.90
8093;DHT22;4089;52.420;13.334;2024-02-26T09:01:05;6.90;99.90
8093;DHT22;4089;52.420;13.334;2024-02-26T09:03:31;6.90;99.90
8093;DHT22;4089;52.420;13.334;2024-02-26T09:05:58;7.00;99.90
8093;DHT22;4089;52.420;13.334;2024-02-26T09:08:25;7.10;99.90
8093;DHT22;4089;52.420;13.334;2024-02-26T09:10:52;7.20;99.90
8093;DHT22;4089;52.420;13.334;2024-02-26T09:13:19;7.30;99.90
8093;DHT22;4089;52.420;13.334;2024-02-26T09:15:46;7.40;99.90
8093;DHT22;4089;52.420;13.334;2024-02-26T09:18:13;7.30;99.90
8093;DHT22;4089;52.420;13.334;2024-02-26T09:20:41;7.40;99.90
8093;DHT22;4089;52.420;13.334;2024-02-26T09:23:09;7.30;99.90
8093;DHT22;4089;52.420;13.334;2024-02-26T09:25:36;7.40;99.90
8093;DHT22;4089;52.420;13.334;2024-02-26T09:28:03;7.50;99.90
8093;DHT22;4089;52.420;13.334;2024-02-26T09:30:30;7.60;99.90
8093;DHT22;4089;52.420;13.334;2024-02-26T09:32:57;7.70;99.90
8093;DHT22;4089;52.420;13.334;2024-02-26T09:35:24;7.80;99.90
8093;DHT22;4089;52.420;13.334;2024-02-26T09:37:51;7.80;99.90
8093;DHT22;4089;52.420;13.334;2024-02-26T09:40:17;7.90;99.90
8093;DHT22;4089;52.420;13.334;2024-02-26T09:42:45;8.10;99.90
8093;DHT22;4089;52.420;13.334;2024-02-26T09:45:19;8.30;99.90
8093;DHT22;4089;52.420;13.334;2024-02-26T09:47:48;8.30;99.90
8093;DHT22;4089;52.420;13.334;2024-02-26T09:50:19;8.40;99.90
8093;DHT22;4089;52.420;13.334;2024-02-26T09:52:53;8.40;99.90
8093;DHT22;4089;52.420;13.334;2024-02-26T09:55:20;8.40;99.90
8093;DHT22;4089;52.420;13.334;2024-02-26T09:57:48;8.60;99.90
8093;DHT22;4089;52.420;13.334;2024-02-26T10:00:19;8.60;99.90
8093;DHT22;4089;52.420;13.334;2024-02-26T10:02:47;8.70;99.90
8093;DHT22;4089;52.420;13.334;2024-02-26T10:05:17;8.90;99.90
8093;DHT22;4089;52.420;13.334;2024-02-26T10:07:48;9.00;99.90
8093;DHT22;4089;52.420;13.334;2024-02-26T10:10:15;9.10;99.90
8093;DHT22;4089;52.420;13.334;2024-02-26T10:12:42;9.20;99.90
8093;DHT22;4089;52.420;13.334;2024-02-26T10:15:09;9.30;99.90
8093;DHT22;4089;52.420;13.334;2024-02-26T10:17:36;9.30;99.90
8093;DHT22;4089;52.420;13.334;2024-02-26T10:20:23;9.40;99.90
8093;DHT22;4089;52.420;13.334;2024-02-26T10:22:50;9.50;99.90
8093;DHT22;4089;52.420;13.334;2024-02-26T10:25:19;9.60;99.90
8093;DHT22;4089;52.420;13.334;2024-02-26T10:27:47;9.70;99.90
8093;DHT22;4089;52.420;13.334;2024-02-26T10:30:21;9.90;99.90
8093;DHT22;4089;52.420;13.334;2024-02-26T10:32:49;10.10;99.90
8093;DHT22;4089;52.420;13.334;2024-02-26T10:35:17;10.10;99.90
8093;DHT22;4089;52.420;13.334;2024-02-26T10:37:49;10.20;99.90
8093;DHT22;4089;52.420;13.334;2024-02-26T10:40:17;10.20;99.90
8093;DHT22;4089;52.420;13.334;2024-02-26T10:42:44;10.30;99.90
8093;DHT22;4089;52.420;13.334;2024-02-26T10:45:12;10.40;99.90
8093;DHT22;4089;52.420;13.334;2024-02-26T10:47:40;10.60;99.90
8093;DHT22;4089;52.420;13.334;2024-02-26T10:50:09;10.70;99.90
8093;DHT22;4089;52.420;13.334;2024-02-26T10:52:36;10.80;99.90
8093;DHT22;4089;52.420;13.334;2024-02-26T10:55:05;11.00;99.90
8093;DHT22;4089;52.420;13.334;2024-02-26T10:57:38;11.00;99.90
8093;DHT22;4089;52.420;13.334;2024-02-26T11:00:07;11.00;99.90
8093;DHT22;4089;52.420;13.334;2024-02-26T11:02:37;11.00;99.90
8093;DHT22;4089;52.420;13.334;2024-02-26T11:05:06;11.10;99.90
8093;DHT22;4089;52.420;13.334;2024-02-26T11:07:34;11.10;99.90
8093;DHT22;4089;52.420;13.334;2024-02-26T11:10:06;11.20;99.90
8093;DHT22;4089;52.420;13.334;2024-02-26T11:12:34;11.20;99.90
8093;DHT22;4089;52.420;13.334;2024-02-26T11:15:05;11.40;99.90
8093;DHT22;4089;52.420;13.334;2024-02-26T11:17:32;11.40;99.90
8093;DHT22;4089;52.420;13.334;2024-02-26T11:20:00;11.50;99.90
8093;DHT22;4089;52.420;13.334;2024-02-26T11:22:30;11.60;99.90
8093;DHT22;4089;52.420;13.334;2024-02-26T11:24:57;11.60;99.90
8093;DHT22;4089;52.420;13.334;2024-02-26T11:27:28;11.60;99.90
8093;DHT22;4089;52.420;13.334;2024-02-26T11:29:58;11.50;99.90
8093;DHT22;4089;52.420;13.334;2024-02-26T11:32:27;11.50;99.90
8093;DHT22;4089;52.420;13.334;2024-02-26T11:34:58;11.60;99.90
8093;DHT22;4089;52.420;13.334;2024-02-26T11:37:25;11.70;99.40
8093;DHT22;4089;52.420;13.334;2024-02-26T11:39:53;11.90;99.90
8093;DHT22;4089;52.420;13.334;2024-02-26T11:42:23;12.00;99.30
8093;DHT22;4089;52.420;13.334;2024-02-26T11:44:55;11.90;98.80
8093;DHT22;4089;52.420;13.334;2024-02-26T11:47:28;11.70;98.00
8093;DHT22;4089;52.420;13.334;2024-02-26T11:49:55;11.70;97.90
8093;DHT22;4089;52.420;13.334;2024-02-26T11:52:22;11.70;97.80
8093;DHT22;4089;52.420;13.334;2024-02-26T11:54:50;11.70;97.40
8093;DHT22;4089;52.420;13.334;2024-02-26T11:59:52;11.90;97.10
8093;DHT22;4089;52.420;13.334;2024-02-26T12:02:43;11.70;96.20
8093;DHT22;4089;52.420;13.334;2024-02-26T12:05:17;11.80;96.40
8093;DHT22;4089;52.420;13.334;2024-02-26T12:07:47;11.90;96.70
8093;DHT22;4089;52.420;13.334;2024-02-26T12:12:59;12.10;96.60
8093;DHT22;4089;52.420;13.334;2024-02-26T12:15:37;12.20;96.40
8093;DHT22;4089;52.420;13.334;2024-02-26T12:18:06;12.30;96.10
8093;DHT22;4089;52.420;13.334;2024-02-26T12:20:34;12.50;95.20
8093;DHT22;4089;52.420;13.334;2024-02-26T12:23:02;12.60;95.20
8093;DHT22;4089;52.420;13.334;2024-02-26T12:25:31;12.50;94.90
8093;DHT22;4089;52.420;13.334;2024-02-26T12:27:59;12.60;94.70
8093;DHT22;4089;52.420;13.334;2024-02-26T12:30:27;12.40;93.80
8093;DHT22;4089;52.420;13.334;2024-02-26T12:32:57;12.50;94.50
8093;DHT22;4089;52.420;13.334;2024-02-26T12:35:27;12.60;94.30
8093;DHT22;4089;52.420;13.334;2024-02-26T12:37:55;12.40;93.10
8093;DHT22;4089;52.420;13.334;2024-02-26T12:40:22;12.50;93.10
8093;DHT22;4089;52.420;13.334;2024-02-26T12:42:49;12.40;92.60
8093;DHT22;4089;52.420;13.334;2024-02-26T12:45:15;12.20;92.50
8093;DHT22;4089;52.420;13.334;2024-02-26T12:47:44;12.20;92.50
8093;DHT22;4089;52.420;13.334;2024-02-26T12:50:13;12.20;92.50
8093;DHT22;4089;52.420;13.334;2024-02-26T12:52:45;12.30;92.70
8093;DHT22;4089;52.420;13.334;2024-02-26T12:55:15;12.30;91.90
8093;DHT22;4089;52.420;13.334;2024-02-26T12:57:44;12.40;91.20
8093;DHT22;4089;52.420;13.334;2024-02-26T13:00:15;12.50;91.20
8093;DHT22;4089;52.420;13.334;2024-02-26T13:02:43;12.60;88.10
8093;DHT22;4089;52.420;13.334;2024-02-26T13:05:13;12.50;89.20
8093;DHT22;4089;52.420;13.334;2024-02-26T13:07:46;12.40;87.00
8093;DHT22;4089;52.420;13.334;2024-02-26T13:10:17;12.40;86.80
8093;DHT22;4089;52.420;13.334;2024-02-26T13:12:46;12.30;85.20
8093;DHT22;4089;52.420;13.334;2024-02-26T13:15:17;12.30;84.10
8093;DHT22;4089;52.420;13.334;2024-02-26T13:17:45;12.30;81.90
8093;DHT22;4089;52.420;13.334;2024-02-26T13:20:13;12.40;82.60
8093;DHT22;4089;52.420;13.334;2024-02-26T13:22:41;12.50;83.20
8093;DHT22;4089;52.420;13.334;2024-02-26T13:25:10;12.50;80.80
8093;DHT22;4089;52.420;13.334;2024-02-26T13:27:37;12.50;80.30
8093;DHT22;4089;52.420;13.334;2024-02-26T13:30:10;12.50;79.20
8093;DHT22;4089;52.420;13.334;2024-02-26T13:32:41;12.50;80.00
8093;DHT22;4089;52.420;13.334;2024-02-26T13:35:12;12.60;79.50
8093;DHT22;4089;52.420;13.334;2024-02-26T13:37:39;12.60;79.30
8093;DHT22;4089;52.420;13.334;2024-02-26T13:40:11;12.40;77.70
8093;DHT22;4089;52.420;13.334;2024-02-26T13:42:38;12.40;76.60
8093;DHT22;4089;52.420;13.334;2024-02-26T13:45:06;12.40;77.50
8093;DHT22;4089;52.420;13.334;2024-02-26T13:47:36;12.30;75.80
8093;DHT22;4089;52.420;13.334;2024-02-26T13:50:03;12.40;75.90
8093;DHT22;4089;52.420;13.334;2024-02-26T13:52:30;12.40;74.30
8093;DHT22;4089;52.420;13.334;2024-02-26T13:54:59;12.40;74.60
8093;DHT22;4089;52.420;13.334;2024-02-26T13:57:26;12.50;76.20
8093;DHT22;4089;52.420;13.334;2024-02-26T13:59:54;12.50;76.50
8093;DHT22;4089;52.420;13.334;2024-02-26T14:02:21;12.50;75.40
8093;DHT22;4089;52.420;13.334;2024-02-26T14:04:47;12.60;77.30
8093;DHT22;4089;52.420;13.334;2024-02-26T14:07:15;12.60;78.20
8093;DHT22;4089;52.420;13.334;2024-02-26T14:09:44;12.60;80.20
8093;DHT22;4089;52.420;13.334;2024-02-26T14:12:16;12.50;80.50
8093;DHT22;4089;52.420;13.334;2024-02-26T14:14:47;12.50;82.00
8093;DHT22;4089;52.420;13.334;2024-02-26T14:17:15;12.50;83.00
8093;DHT22;4089;52.420;13.334;2024-02-26T14:19:42;12.40;83.70
8093;DHT22;4089;52.420;13.334;2024-02-26T14:22:15;12.30;83.40
8093;DHT22;4089;52.420;13.334;2024-02-26T14:24:44;12.30;84.60
8093;DHT22;4089;52.420;13.334;2024-02-26T14:27:12;12.40;85.60
8093;DHT22;4089;52.420;13.334;2024-02-26T14:29:43;12.40;86.00
8093;DHT22;4089;52.420;13.334;2024-02-26T14:32:10;12.40;86.20
8093;DHT22;4089;52.420;13.334;2024-02-26T14:34:37;12.30;86.60
8093;DHT22;4089;52.420;13.334;2024-02-26T14:37:05;12.10;88.20
8093;DHT22;4089;52.420;13.334;2024-02-26T14:39:32;12.00;89.30
8093;DHT22;4089;52.420;13.334;2024-02-26T14:42:00;12.00;89.70
8093;DHT22;4089;52.420;13.334;2024-02-26T14:44:27;11.90;89.60
8093;DHT22;4089;52.420;13.334;2024-02-26T14:46:54;11.90;90.30
8093;DHT22;4089;52.420;13.334;2024-02-26T14:49:21;11.90;90.10
8093;DHT22;4089;52.420;13.334;2024-02-26T14:51:48;11.90;89.50
8093;DHT22;4089;52.420;13.334;2024-02-26T14:54:15;11.80;90.10
8093;DHT22;4089;52.420;13.334;2024-02-26T14:56:41;11.80;90.20
8093;DHT22;4089;52.420;13.334;2024-02-26T14:59:08;11.80;90.50
8093;DHT22;4089;52.420;13.334;2024-02-26T15:01:35;11.70;90.90
8093;DHT22;4089;52.420;13.334;2024-02-26T15:04:02;11.70;91.00
8093;DHT22;4089;52.420;13.334;2024-02-26T15:06:30;11.60;91.50
8093;DHT22;4089;52.420;13.334;2024-02-26T15:08:57;11.50;91.80
8093;DHT22;4089;52.420;13.334;2024-02-26T15:11:24;11.50;92.20
8093;DHT22;4089;52.420;13.334;2024-02-26T15:13:51;11.50;92.40
8093;DHT22;4089;52.420;13.334;2024-02-26T15:16:19;11.50;92.60
8093;DHT22;4089;52.420;13.334;2024-02-26T15:18:47;11.50;92.80
8093;DHT22;4089;52.420;13.334;2024-02-26T15:21:14;11.50;92.90
8093;DHT22;4089;52.420;13.334;2024-02-26T15:23:44;11.40;93.10
8093;DHT22;4089;52.420;13.334;2024-02-26T15:26:30;11.50;93.60
8093;DHT22;4089;52.420;13.334;2024-02-26T15:28:57;11.40;93.60
8093;DHT22;4089;52.420;13.334;2024-02-26T15:31:24;11.40;93.50
8093;DHT22;4089;52.420;13.334;2024-02-26T15:33:50;11.20;93.50
8093;DHT22;4089;52.420;13.334;2024-02-26T15:36:17;11.20;93.70
8093;DHT22;4089;52.420;13.334;2024-02-26T15:38:44;11.30;94.00
8093;DHT22;4089;52.420;13.334;2024-02-26T15:41:12;11.20;94.30
8093;DHT22;4089;52.420;13.334;2024-02-26T15:43:39;11.20;94.20
8093;DHT22;4089;52.420;13.334;2024-02-26T15:46:06;11.20;94.50
8093;DHT22;4089;52.420;13.334;2024-02-26T15:48:33;11.10;94.40
8093;DHT22;4089;52.420;13.334;2024-02-26T15:51:03;11.10;94.50
8093;DHT22;4089;52.420;13.334;2024-02-26T15:53:31;11.00;94.60
8093;DHT22;4089;52.420;13.334;2024-02-26T15:55:58;10.90;94.90
8093;DHT22;4089;52.420;13.334;2024-02-26T15:58:26;11.00;95.40
8093;DHT22;4089;52.420;13.334;2024-02-26T16:00:52;10.90;95.50
8093;DHT22;4089;52.420;13.334;2024-02-26T16:03:19;10.90;95.80
8093;DHT22;4089;52.420;13.334;2024-02-26T16:05:46;10.80;96.00
8093;DHT22;4089;52.420;13.334;2024-02-26T16:08:23;10.80;96.30
8093;DHT22;4089;52.420;13.334;2024-02-26T16:10:50;10.80;96.70
8093;DHT22;4089;52.420;13.334;2024-02-26T16:13:18;10.70;97.00
8093;DHT22;4089;52.420;13.334;2024-02-26T16:15:58;10.60;97.40
8093;DHT22;4089;52.420;13.334;2024-02-26T16:18:25;10.60;97.90
8093;DHT22;4089;52.420;13.334;2024-02-26T16:20:53;10.60;98.40
8093;DHT22;4089;52.420;13.334;2024-02-26T16:23:21;10.50;98.70
8093;DHT22;4089;52.420;13.334;2024-02-26T16:25:49;10.50;99.30
8093;DHT22;4089;52.420;13.334;2024-02-26T16:28:18;10.50;99.70
8093;DHT22;4089;52.420;13.334;2024-02-26T16:30:45;10.40;99.90
8093;DHT22;4089;52.420;13.334;2024-02-26T16:33:13;10.40;99.90
8093;DHT22;4089;52.420;13.334;2024-02-26T16:35:39;10.40;99.90
8093;DHT22;4089;52.420;13.334;2024-02-26T16:38:06;10.30;99.90
8093;DHT22;4089;52.420;13.334;2024-02-26T16:40:33;10.20;99.90
8093;DHT22;4089;52.420;13.334;2024-02-26T16:43:00;10.20;99.90